Time;durP1;ratioP1;P1;durP2;ratioP2;P2;SDS_P1;SDS_P2;PMS_P1;PMS_P2;Temp;Humidity;BMP_temperature;BMP_pressure;BME280_temperature;BME280_humidity;BME280_pressure;Samples;Min_cycle;Max_cycle;Signal;HPM_P1;HPM_P2
2022/06/05 00:00:43;;;;;;;18.27;14.02;;;;;;;;;;4866480;29;20036;-63
2022/06/05 00:03:17;;;;;;;19.88;13.20;;;;;;;;;;4864060;29;20032;-63
2022/06/05 00:05:58;;;;;;;22.02;14.13;;;;;;;;;;4864155;29;20048;-63
2022/06/05 00:08:36;;;;;;;24.27;14.75;;;;;;;;;;4864702;29;20036;-63
2022/06/05 00:11:01;;;;;;;24.75;14.65;;;;;;;;;;4866855;29;20048;-62
2022/06/05 00:13:40;;;;;;;24.15;14.80;;;;;;;;;;4865356;29;20036;-64
2022/06/05 00:16:06;;;;;;;29.67;15.07;;;;;;;;;;4863667;29;20036;-64
2022/06/05 00:18:33;;;;;;;19.15;14.85;;;;;;;;;;4865197;29;20051;-63
2022/06/05 00:21:01;;;;;;;23.98;15.25;;;;;;;;;;4866135;29;20092;-62
2022/06/05 00:23:29;;;;;;;27.10;15.80;;;;;;;;;;4865658;29;21215;-62
2022/06/05 00:26:13;;;;;;;24.77;15.07;;;;;;;;;;4863326;29;20039;-63
2022/06/05 00:28:42;;;;;;;24.50;15.93;;;;;;;;;;4863100;29;20155;-62
2022/06/05 00:31:24;;;;;;;23.33;16.17;;;;;;;;;;4865460;29;20086;-62
2022/06/05 00:33:49;;;;;;;27.80;17.10;;;;;;;;;;4865600;29;20039;-63
2022/06/05 00:36:24;;;;;;;23.25;16.25;;;;;;;;;;4843373;29;20132;-62
2022/06/05 00:38:52;;;;;;;25.92;17.35;;;;;;;;;;4861682;29;20135;-62
2022/06/05 00:41:26;;;;;;;26.52;17.40;;;;;;;;;;4862511;29;20055;-62
2022/06/05 00:43:54;;;;;;;25.23;17.77;;;;;;;;;;4847818;29;20048;-63
2022/06/05 00:46:23;;;;;;;27.38;16.30;;;;;;;;;;4864198;29;20067;-63
2022/06/05 00:48:51;;;;;;;28.48;17.35;;;;;;;;;;4866542;29;20052;-65
2022/06/05 00:51:16;;;;;;;26.65;17.17;;;;;;;;;;4864996;29;20040;-65
2022/06/05 00:53:42;;;;;;;27.75;16.95;;;;;;;;;;4868389;29;20059;-65
2022/06/05 00:56:09;;;;;;;33.65;17.92;;;;;;;;;;4866453;29;20125;-64
2022/06/05 00:58:35;;;;;;;29.20;18.08;;;;;;;;;;4867278;29;20051;-64
2022/06/05 01:01:03;;;;;;;26.27;16.90;;;;;;;;;;4867714;29;20044;-65
2022/06/05 01:03:28;;;;;;;24.17;16.50;;;;;;;;;;4866272;29;20043;-65
2022/06/05 01:05:56;;;;;;;26.92;16.35;;;;;;;;;;4866897;29;20071;-65
2022/06/05 01:08:22;;;;;;;26.63;17.15;;;;;;;;;;4865019;29;20054;-65
2022/06/05 01:11:09;;;;;;;24.55;16.63;;;;;;;;;;4866953;29;20041;-63
2022/06/05 01:13:37;;;;;;;26.40;17.00;;;;;;;;;;4851267;29;20044;-64
2022/06/05 01:16:03;;;;;;;26.85;17.50;;;;;;;;;;4846051;29;20040;-66
2022/06/05 01:18:46;;;;;;;25.90;16.17;;;;;;;;;;4866911;29;20218;-64
2022/06/05 01:21:34;;;;;;;27.90;17.58;;;;;;;;;;4862934;29;20059;-65
2022/06/05 01:24:19;;;;;;;27.55;17.50;;;;;;;;;;4867258;29;20032;-65
2022/06/05 01:26:49;;;;;;;26.77;17.30;;;;;;;;;;4866533;29;20757;-65
2022/06/05 01:29:19;;;;;;;26.60;17.55;;;;;;;;;;4841590;29;20244;-65
2022/06/05 01:31:51;;;;;;;29.10;17.75;;;;;;;;;;4864936;29;20036;-65
2022/06/05 01:34:20;;;;;;;30.70;18.02;;;;;;;;;;4867393;29;20043;-64
2022/06/05 01:36:54;;;;;;;31.80;18.60;;;;;;;;;;4865365;29;20047;-63
2022/06/05 01:39:23;;;;;;;27.83;18.15;;;;;;;;;;4867431;29;20184;-64
2022/06/05 01:41:54;;;;;;;27.35;17.73;;;;;;;;;;4846135;29;20112;-64
2022/06/05 01:44:26;;;;;;;25.10;16.70;;;;;;;;;;4864718;29;20036;-65
2022/06/05 01:46:52;;;;;;;26.42;16.30;;;;;;;;;;4845615;29;20044;-65
2022/06/05 01:49:17;;;;;;;28.40;17.55;;;;;;;;;;4864852;29;20131;-64
2022/06/05 01:51:51;;;;;;;28.85;17.17;;;;;;;;;;4863556;29;20151;-64
2022/06/05 01:54:19;;;;;;;25.58;16.67;;;;;;;;;;4867640;29;20036;-65
2022/06/05 01:56:48;;;;;;;25.80;16.92;;;;;;;;;;4866743;29;20047;-65
2022/06/05 01:59:17;;;;;;;29.10;18.20;;;;;;;;;;4851100;29;20035;-65
2022/06/05 02:01:45;;;;;;;28.92;17.83;;;;;;;;;;4865734;29;21977;-65
2022/06/05 02:04:17;;;;;;;27.98;17.65;;;;;;;;;;4865802;29;20070;-65
2022/06/05 02:06:46;;;;;;;27.17;17.15;;;;;;;;;;4866563;29;20107;-65
2022/06/05 02:09:18;;;;;;;23.63;17.02;;;;;;;;;;4866848;29;20987;-65
2022/06/05 02:11:43;;;;;;;;;;;;;;;;;;4865830;29;20469;-65
2022/06/05 02:14:09;;;;;;;27.27;17.52;;;;;;;;;;4867086;29;22606;-65
2022/06/05 02:16:36;;;;;;;24.63;17.45;;;;;;;;;;4867464;29;20063;-65
2022/06/05 02:19:03;;;;;;;29.02;16.95;;;;;;;;;;4845229;29;20041;-65
2022/06/05 02:21:29;;;;;;;24.48;17.17;;;;;;;;;;4864746;29;20624;-65
2022/06/05 02:23:56;;;;;;;23.60;16.88;;;;;;;;;;4866768;29;20108;-66
2022/06/05 02:26:21;;;;;;;25.42;15.77;;;;;;;;;;4866697;29;20039;-64
2022/06/05 02:28:46;;;;;;;26.40;16.13;;;;;;;;;;4871396;29;20128;-64
2022/06/05 02:31:31;;;;;;;26.80;16.52;;;;;;;;;;4868971;29;20058;-64
2022/06/05 02:33:59;;;;;;;21.95;15.43;;;;;;;;;;4868835;29;20044;-64
2022/06/05 02:36:43;;;;;;;24.60;16.35;;;;;;;;;;4869124;29;20059;-65
2022/06/05 02:39:12;;;;;;;27.13;16.38;;;;;;;;;;4870362;29;22258;-64
2022/06/05 02:41:48;;;;;;;24.02;16.52;;;;;;;;;;4868279;29;20875;-64
2022/06/05 02:44:29;;;;;;;23.45;16.98;;;;;;;;;;4850877;29;20640;-65
2022/06/05 02:47:19;;;;;;;25.20;16.40;;;;;;;;;;4868447;29;20047;-65
2022/06/05 02:50:03;;;;;;;23.92;15.52;;;;;;;;;;4870171;29;20040;-65
2022/06/05 02:52:30;;;;;;;26.83;15.93;;;;;;;;;;4852136;29;20040;-65
2022/06/05 02:55:06;;;;;;;23.67;15.10;;;;;;;;;;4868801;29;20072;-65
2022/06/05 02:57:35;;;;;;;23.13;15.32;;;;;;;;;;4869426;29;20167;-64
2022/06/05 03:00:01;;;;;;;25.27;15.50;;;;;;;;;;4868575;29;20056;-65
2022/06/05 03:05:10;;;;;;;23.73;14.73;;;;;;;;;;4868449;29;20036;-65
2022/06/05 03:07:35;;;;;;;26.65;15.90;;;;;;;;;;4869337;29;20104;-65
2022/06/05 03:10:01;;;;;;;23.42;16.40;;;;;;;;;;4868458;29;20044;-65
2022/06/05 03:12:27;;;;;;;23.10;15.57;;;;;;;;;;4852733;29;20917;-65
2022/06/05 03:14:56;;;;;;;23.63;15.18;;;;;;;;;;4851574;29;20060;-65
2022/06/05 03:17:21;;;;;;;23.92;15.80;;;;;;;;;;4851744;29;20654;-65
2022/06/05 03:19:46;;;;;;;23.60;15.90;;;;;;;;;;4868453;29;20040;-66
2022/06/05 03:22:12;;;;;;;20.05;15.63;;;;;;;;;;4868885;29;20040;-62
2022/06/05 03:24:39;;;;;;;21.85;15.57;;;;;;;;;;4852708;29;20040;-64
2022/06/05 03:27:05;;;;;;;23.65;15.73;;;;;;;;;;4851668;29;20150;-65
2022/06/05 03:29:32;;;;;;;22.60;16.05;;;;;;;;;;4866233;29;20044;-65
2022/06/05 03:31:58;;;;;;;24.13;15.40;;;;;;;;;;4844045;29;20581;-64
2022/06/05 03:34:24;;;;;;;25.77;17.45;;;;;;;;;;4866173;29;20032;-66
2022/06/05 03:36:49;;;;;;;23.90;15.55;;;;;;;;;;4848316;29;20047;-63
2022/06/05 03:39:15;;;;;;;27.50;16.10;;;;;;;;;;4866133;29;20131;-64
2022/06/05 03:41:43;;;;;;;22.90;16.00;;;;;;;;;;4868341;29;20048;-66
2022/06/05 03:44:09;;;;;;;24.10;15.93;;;;;;;;;;4867868;29;20036;-64
2022/06/05 03:46:35;;;;;;;26.70;16.75;;;;;;;;;;4868436;29;20063;-65
2022/06/05 03:49:01;;;;;;;22.50;15.20;;;;;;;;;;4867633;29;20039;-65
2022/06/05 03:51:26;;;;;;;25.25;15.35;;;;;;;;;;4865270;29;20221;-63
2022/06/05 03:53:52;;;;;;;22.50;14.73;;;;;;;;;;4869858;29;20131;-65
2022/06/05 03:56:21;;;;;;;24.63;14.38;;;;;;;;;;4868102;29;20052;-66
2022/06/05 03:58:46;;;;;;;22.63;14.32;;;;;;;;;;4867318;29;20047;-65
2022/06/05 04:01:13;;;;;;;22.27;14.40;;;;;;;;;;4832019;29;20041;-65
2022/06/05 04:03:39;;;;;;;22.13;14.27;;;;;;;;;;4868562;29;20036;-67
2022/06/05 04:06:05;;;;;;;18.27;14.73;;;;;;;;;;4868974;29;20040;-66
2022/06/05 04:08:34;;;;;;;26.55;14.82;;;;;;;;;;4868594;29;20063;-66
2022/06/05 04:11:03;;;;;;;28.85;14.77;;;;;;;;;;4852824;29;20032;-65
2022/06/05 04:13:31;;;;;;;25.88;15.52;;;;;;;;;;4867749;29;20040;-65
2022/06/05 04:15:56;;;;;;;24.98;14.57;;;;;;;;;;4868681;29;20111;-65
2022/06/05 04:18:24;;;;;;;21.25;14.77;;;;;;;;;;4868034;29;21032;-64
2022/06/05 04:20:49;;;;;;;22.45;14.32;;;;;;;;;;4865289;29;20228;-65
2022/06/05 04:23:14;;;;;;;20.10;14.70;;;;;;;;;;4868072;29;20040;-65
2022/06/05 04:25:43;;;;;;;21.50;14.55;;;;;;;;;;4850209;29;20756;-64
2022/06/05 04:28:09;;;;;;;25.17;15.25;;;;;;;;;;4868461;29;20044;-64
2022/06/05 04:30:38;;;;;;;23.50;15.27;;;;;;;;;;4867525;29;20075;-65
2022/06/05 04:33:03;;;;;;;22.25;14.70;;;;;;;;;;4847871;29;20043;-65
2022/06/05 04:35:29;;;;;;;20.02;15.13;;;;;;;;;;4867276;29;20742;-65
2022/06/05 04:37:57;;;;;;;22.48;14.93;;;;;;;;;;4850164;29;20036;-65
2022/06/05 04:40:25;;;;;;;25.88;16.80;;;;;;;;;;4867662;29;20043;-65
2022/06/05 04:42:50;;;;;;;23.25;16.45;;;;;;;;;;4828756;29;20040;-64
2022/06/05 04:45:15;;;;;;;24.08;15.93;;;;;;;;;;4865211;29;20035;-65
2022/06/05 04:47:41;;;;;;;22.33;15.15;;;;;;;;;;4863144;29;20761;-65
2022/06/05 04:50:07;;;;;;;21.00;15.20;;;;;;;;;;4859978;29;20067;-64
2022/06/05 04:52:34;;;;;;;21.73;15.35;;;;;;;;;;4867567;29;20052;-64
2022/06/05 04:55:00;;;;;;;23.90;16.20;;;;;;;;;;4868264;29;20040;-65
2022/06/05 04:57:27;;;;;;;21.77;15.00;;;;;;;;;;4866263;29;20047;-65
2022/06/05 04:59:52;;;;;;;19.67;14.23;;;;;;;;;;4862055;29;20630;-63
2022/06/05 05:02:18;;;;;;;21.70;14.40;;;;;;;;;;4849656;29;20032;-65
2022/06/05 05:04:49;;;;;;;21.30;13.57;;;;;;;;;;4844782;29;20083;-65
2022/06/05 05:07:14;;;;;;;19.85;14.02;;;;;;;;;;4848497;29;20036;-66
2022/06/05 05:09:40;;;;;;;20.95;13.63;;;;;;;;;;4863879;29;20075;-66
2022/06/05 05:12:06;;;;;;;20.92;14.48;;;;;;;;;;4864855;29;20040;-65
2022/06/05 05:14:32;;;;;;;23.42;14.70;;;;;;;;;;4847775;29;20047;-65
2022/06/05 05:16:57;;;;;;;25.75;14.85;;;;;;;;;;4832218;29;20059;-65
2022/06/05 05:19:23;;;;;;;24.58;15.43;;;;;;;;;;4843743;29;20116;-65
2022/06/05 05:21:48;;;;;;;23.15;14.60;;;;;;;;;;4865242;29;20748;-65
2022/06/05 05:24:13;;;;;;;21.75;14.07;;;;;;;;;;4863018;29;20156;-64
2022/06/05 05:26:38;;;;;;;23.15;14.50;;;;;;;;;;4865515;29;20064;-65
2022/06/05 05:29:04;;;;;;;20.75;14.18;;;;;;;;;;4865971;29;20123;-64
2022/06/05 05:31:31;;;;;;;19.17;13.30;;;;;;;;;;4864668;29;20048;-65
2022/06/05 05:33:56;;;;;;;22.20;13.20;;;;;;;;;;4866406;29;20713;-66
2022/06/05 05:36:22;;;;;;;19.75;14.35;;;;;;;;;;4865622;29;20047;-65
2022/06/05 05:44:20;;;;;;;20.85;14.68;;;;;;;;;;4864949;29;20040;-65
2022/06/05 05:46:46;;;;;;;20.95;13.95;;;;;;;;;;4864712;29;20096;-65
2022/06/05 05:49:11;;;;;;;22.48;14.25;;;;;;;;;;4862718;29;20259;-65
2022/06/05 05:51:37;;;;;;;22.70;14.27;;;;;;;;;;4866841;29;20037;-65
2022/06/05 05:54:03;;;;;;;21.85;14.85;;;;;;;;;;4866144;29;20140;-65
2022/06/05 05:56:31;;;;;;;21.23;14.25;;;;;;;;;;4865907;29;20040;-67
2022/06/05 05:58:56;;;;;;;20.85;14.30;;;;;;;;;;4846390;29;22578;-64
2022/06/05 06:01:22;;;;;;;21.00;14.57;;;;;;;;;;4864382;29;20122;-66
2022/06/05 06:03:47;;;;;;;19.60;14.50;;;;;;;;;;4864728;29;20120;-67
2022/06/05 06:06:12;;;;;;;18.63;14.25;;;;;;;;;;4861638;29;20047;-66
2022/06/05 06:08:40;;;;;;;19.05;14.80;;;;;;;;;;4863354;29;20139;-65
2022/06/05 06:11:08;;;;;;;21.42;14.52;;;;;;;;;;4840871;29;20044;-65
2022/06/05 06:13:33;;;;;;;20.95;14.05;;;;;;;;;;4861804;29;20041;-65
2022/06/05 06:15:59;;;;;;;22.25;14.43;;;;;;;;;;4863205;29;20362;-65
2022/06/05 06:18:24;;;;;;;22.95;14.50;;;;;;;;;;4863444;29;20070;-65
2022/06/05 06:20:50;;;;;;;23.58;14.43;;;;;;;;;;4862430;29;20036;-65
2022/06/05 06:23:15;;;;;;;17.92;13.23;;;;;;;;;;4862813;29;20032;-66
2022/06/05 06:25:41;;;;;;;20.77;14.95;;;;;;;;;;4840689;29;20055;-66
2022/06/05 06:28:07;;;;;;;23.77;14.18;;;;;;;;;;4861659;29;20052;-65
2022/06/05 06:30:33;;;;;;;20.38;14.30;;;;;;;;;;4861485;29;20139;-66
2022/06/05 06:32:59;;;;;;;20.30;14.75;;;;;;;;;;4842291;29;20159;-65
2022/06/05 06:35:24;;;;;;;22.10;14.75;;;;;;;;;;4861971;29;20036;-66
2022/06/05 06:37:49;;;;;;;22.52;14.32;;;;;;;;;;4862707;29;20049;-63
2022/06/05 06:40:15;;;;;;;19.42;14.43;;;;;;;;;;4841610;29;20064;-64
2022/06/05 06:42:40;;;;;;;22.05;14.73;;;;;;;;;;4845886;29;20183;-64
2022/06/05 06:45:06;;;;;;;18.92;13.52;;;;;;;;;;4861579;29;20059;-65
2022/06/05 06:47:33;;;;;;;24.73;15.13;;;;;;;;;;4854991;29;20074;-64
2022/06/05 06:49:58;;;;;;;19.05;14.82;;;;;;;;;;4861507;29;20953;-64
2022/06/05 06:52:26;;;;;;;19.95;14.98;;;;;;;;;;4861141;29;20048;-64
2022/06/05 06:54:53;;;;;;;23.55;15.48;;;;;;;;;;4861830;29;20400;-65
2022/06/05 06:57:18;;;;;;;20.30;14.38;;;;;;;;;;4863462;29;20044;-65
2022/06/05 06:59:43;;;;;;;20.95;15.23;;;;;;;;;;4860863;29;20047;-65
2022/06/05 07:02:10;;;;;;;23.27;15.65;;;;;;;;;;4859241;29;20120;-65
2022/06/05 07:04:36;;;;;;;20.65;15.60;;;;;;;;;;4860412;29;20052;-65
2022/06/05 07:07:01;;;;;;;24.70;15.40;;;;;;;;;;4859644;29;20040;-65
2022/06/05 07:09:26;;;;;;;22.55;15.52;;;;;;;;;;4863247;29;20063;-65
2022/06/05 07:11:52;;;;;;;23.08;15.50;;;;;;;;;;4848283;29;20059;-67
2022/06/05 07:14:17;;;;;;;21.13;15.50;;;;;;;;;;4846191;29;21212;-66
2022/06/05 07:16:46;;;;;;;23.38;15.57;;;;;;;;;;4847665;29;20032;-64
2022/06/05 07:19:11;;;;;;;23.30;15.32;;;;;;;;;;4865671;29;20071;-65
2022/06/05 07:21:37;;;;;;;20.55;14.80;;;;;;;;;;4865570;29;20036;-65
2022/06/05 07:24:02;;;;;;;20.70;14.73;;;;;;;;;;4866624;29;20045;-64
2022/06/05 07:26:29;;;;;;;22.95;16.23;;;;;;;;;;4867384;29;20040;-62
2022/06/05 07:28:56;;;;;;;23.02;14.98;;;;;;;;;;4868302;29;20048;-65
2022/06/05 07:31:21;;;;;;;23.10;16.20;;;;;;;;;;4867681;29;20131;-64
2022/06/05 07:33:47;;;;;;;23.13;15.18;;;;;;;;;;4849107;29;20040;-64
2022/06/05 07:36:14;;;;;;;21.95;15.82;;;;;;;;;;4830075;29;20127;-65
2022/06/05 07:38:40;;;;;;;21.20;15.55;;;;;;;;;;4867852;29;20047;-65
2022/06/05 07:41:07;;;;;;;20.92;15.20;;;;;;;;;;4866707;29;20040;-64
2022/06/05 07:43:32;;;;;;;20.50;15.48;;;;;;;;;;4848775;29;20032;-65
2022/06/05 07:46:03;;;;;;;25.90;15.95;;;;;;;;;;4866155;29;20047;-64
2022/06/05 07:48:29;;;;;;;20.30;15.47;;;;;;;;;;4865572;29;20058;-64
2022/06/05 07:56:33;;;;;;;20.30;14.85;;;;;;;;;;4865982;29;20039;-64
2022/06/05 07:58:58;;;;;;;18.90;14.43;;;;;;;;;;4867169;29;20616;-64
2022/06/05 08:01:23;;;;;;;20.80;15.65;;;;;;;;;;4864693;29;20044;-65
2022/06/05 08:03:49;;;;;;;21.65;15.23;;;;;;;;;;4863367;29;20067;-65
2022/06/05 08:06:14;;;;;;;20.67;15.63;;;;;;;;;;4864269;29;20073;-65
2022/06/05 08:08:39;;;;;;;22.85;15.55;;;;;;;;;;4864927;29;21055;-66
2022/06/05 08:11:05;;;;;;;20.08;15.00;;;;;;;;;;4865617;29;20143;-64
2022/06/05 08:13:30;;;;;;;20.50;14.95;;;;;;;;;;4866592;29;20048;-64
2022/06/05 08:15:56;;;;;;;21.73;15.05;;;;;;;;;;4863387;29;20063;-64
2022/06/05 08:18:21;;;;;;;19.67;14.57;;;;;;;;;;4863618;29;20051;-64
2022/06/05 08:20:48;;;;;;;23.23;15.52;;;;;;;;;;4844941;29;20033;-64
2022/06/05 08:23:13;;;;;;;20.85;14.80;;;;;;;;;;4865102;29;20120;-63
2022/06/05 08:25:38;;;;;;;18.20;13.93;;;;;;;;;;4865940;29;20040;-65
2022/06/05 08:28:06;;;;;;;20.17;14.05;;;;;;;;;;4843079;29;20063;-64
2022/06/05 08:30:37;;;;;;;19.83;14.02;;;;;;;;;;4862139;29;20036;-65
2022/06/05 08:33:03;;;;;;;21.40;13.95;;;;;;;;;;4863394;29;20036;-64
2022/06/05 08:35:28;;;;;;;19.77;14.02;;;;;;;;;;4862019;29;20032;-65
2022/06/05 08:43:40;;;;;;;19.70;14.02;;;;;;;;;;4863293;29;20048;-65
2022/06/05 08:46:05;;;;;;;16.98;14.05;;;;;;;;;;4863365;29;20040;-64
2022/06/05 08:48:37;;;;;;;17.05;14.32;;;;;;;;;;4862086;29;20103;-64
2022/06/05 08:51:19;;;;;;;17.58;14.70;;;;;;;;;;4860640;29;20040;-65
2022/06/05 08:53:56;;;;;;;17.83;13.85;;;;;;;;;;4861920;29;20939;-65
2022/06/05 08:56:25;;;;;;;19.42;14.35;;;;;;;;;;4846770;29;20426;-65
2022/06/05 08:58:56;;;;;;;17.45;13.90;;;;;;;;;;4844077;29;20066;-65
2022/06/05 09:01:25;;;;;;;17.83;13.43;;;;;;;;;;4861505;29;20036;-64
2022/06/05 09:03:56;;;;;;;19.40;14.15;;;;;;;;;;4864412;29;20048;-64
2022/06/05 09:06:34;;;;;;;20.48;13.80;;;;;;;;;;4862834;29;20118;-64
2022/06/05 09:09:05;;;;;;;16.58;13.23;;;;;;;;;;4860624;29;20123;-64
2022/06/05 09:11:30;;;;;;;19.15;12.95;;;;;;;;;;4840942;29;20040;-64
2022/06/05 09:13:58;;;;;;;16.48;13.32;;;;;;;;;;4864159;29;20460;-65
2022/06/05 09:16:25;;;;;;;15.88;13.18;;;;;;;;;;4862556;29;20143;-65
2022/06/05 09:18:51;;;;;;;17.02;12.63;;;;;;;;;;4862577;29;20033;-65
2022/06/05 09:21:31;;;;;;;14.82;13.18;;;;;;;;;;4865793;29;20051;-63
2022/06/05 09:24:17;;;;;;;19.13;12.77;;;;;;;;;;4863693;29;20044;-64
2022/06/05 09:26:44;;;;;;;13.82;12.32;;;;;;;;;;4855643;29;20036;-65
2022/06/05 09:29:19;;;;;;;15.93;11.80;;;;;;;;;;4864287;29;20822;-65
2022/06/05 09:31:53;;;;;;;17.30;11.95;;;;;;;;;;4864852;29;20083;-65
2022/06/05 09:34:24;;;;;;;14.65;11.80;;;;;;;;;;4863238;29;20072;-66
2022/06/05 09:36:57;;;;;;;16.90;13.25;;;;;;;;;;4863500;29;20146;-65
2022/06/05 09:39:29;;;;;;;15.75;13.00;;;;;;;;;;4862847;29;20622;-65
2022/06/05 09:41:54;;;;;;;;;;;;;;;;;;4862889;29;20050;-64
2022/06/05 09:44:30;;;;;;;14.57;12.20;;;;;;;;;;4863039;29;19927;-65
2022/06/05 09:46:58;;;;;;;15.13;12.55;;;;;;;;;;4864270;29;20409;-65
2022/06/05 09:49:35;;;;;;;14.43;12.07;;;;;;;;;;4821284;29;20048;-64
2022/06/05 09:52:16;;;;;;;14.38;12.75;;;;;;;;;;4864707;29;21063;-65
2022/06/05 09:54:48;;;;;;;16.45;12.52;;;;;;;;;;4864800;29;20902;-65
2022/06/05 10:00:29;;;;;;;15.85;12.00;;;;;;;;;;4862957;29;20752;-63
2022/06/05 10:02:56;;;;;;;16.10;12.00;;;;;;;;;;4822138;29;20109;-62
2022/06/05 10:05:27;;;;;;;16.60;12.45;;;;;;;;;;4845443;29;20039;-62
2022/06/05 10:08:16;;;;;;;15.70;12.10;;;;;;;;;;4862985;29;20043;-64
2022/06/05 10:10:42;;;;;;;14.48;12.40;;;;;;;;;;4852097;29;20044;-64
2022/06/05 10:13:10;;;;;;;13.45;11.43;;;;;;;;;;4862850;29;20088;-63
2022/06/05 10:15:43;;;;;;;13.23;11.77;;;;;;;;;;4862874;29;20037;-63
2022/06/05 10:18:11;;;;;;;15.05;11.55;;;;;;;;;;4865361;29;20043;-63
2022/06/05 10:20:59;;;;;;;17.95;12.05;;;;;;;;;;4864007;29;20040;-62
2022/06/05 10:23:24;;;;;;;13.07;11.27;;;;;;;;;;4864982;29;20818;-65
2022/06/05 10:25:50;;;;;;;13.95;11.52;;;;;;;;;;4861763;29;20059;-65
2022/06/05 10:28:17;;;;;;;14.25;11.15;;;;;;;;;;4862702;29;20069;-66
2022/06/05 10:30:55;;;;;;;12.55;11.25;;;;;;;;;;4864376;29;20028;-64
2022/06/05 10:33:23;;;;;;;16.15;12.10;;;;;;;;;;4864343;29;20149;-65
2022/06/05 10:36:07;;;;;;;14.60;11.65;;;;;;;;;;4862268;29;20143;-67
2022/06/05 10:38:41;;;;;;;14.60;10.75;;;;;;;;;;4863423;29;20938;-68
2022/06/05 10:41:30;;;;;;;12.25;10.00;;;;;;;;;;4861130;29;20044;-67
2022/06/05 10:44:08;;;;;;;12.32;10.10;;;;;;;;;;4842424;29;20055;-68
2022/06/05 10:46:39;;;;;;;15.10;10.98;;;;;;;;;;4864296;29;20032;-70
2022/06/05 10:49:11;;;;;;;13.15;11.38;;;;;;;;;;4867955;29;20055;-68
2022/06/05 10:51:42;;;;;;;12.68;10.88;;;;;;;;;;4868662;29;20051;-69
2022/06/05 10:54:16;;;;;;;13.38;11.07;;;;;;;;;;4869100;29;20044;-67
2022/06/05 10:57:06;;;;;;;12.45;10.20;;;;;;;;;;4868128;29;20051;-67
2022/06/05 10:59:44;;;;;;;11.32;9.93;;;;;;;;;;4862678;29;20036;-66
2022/06/05 11:02:15;;;;;;;12.20;10.32;;;;;;;;;;4867387;29;20047;-67
2022/06/05 11:04:50;;;;;;;12.68;10.93;;;;;;;;;;4860689;29;20152;-68
2022/06/05 11:07:39;;;;;;;11.63;10.10;;;;;;;;;;4857659;29;20096;-68
2022/06/05 11:16:19;;;;;;;15.15;11.02;;;;;;;;;;4861708;29;20040;-67
2022/06/05 11:19:03;;;;;;;13.23;10.63;;;;;;;;;;4845827;29;20690;-66
2022/06/05 11:21:34;;;;;;;12.05;10.38;;;;;;;;;;4865772;29;20100;-69
2022/06/05 11:24:00;;;;;;;12.05;10.73;;;;;;;;;;4863333;29;20055;-67
2022/06/05 11:26:33;;;;;;;14.30;10.75;;;;;;;;;;4863327;29;20518;-67
2022/06/05 11:29:02;;;;;;;14.88;10.43;;;;;;;;;;4860261;29;20079;-69
2022/06/05 11:31:47;;;;;;;16.45;10.85;;;;;;;;;;4861141;29;20037;-68
2022/06/05 11:34:34;;;;;;;12.43;10.65;;;;;;;;;;4864130;29;20231;-67
2022/06/05 11:37:18;;;;;;;12.30;10.10;;;;;;;;;;4865567;29;20048;-65
2022/06/05 11:40:02;;;;;;;14.43;10.95;;;;;;;;;;4862097;29;20036;-66
2022/06/05 11:42:46;;;;;;;17.05;11.38;;;;;;;;;;4841258;29;20055;-67
2022/06/05 11:45:14;;;;;;;14.93;11.77;;;;;;;;;;4844467;29;20200;-66
2022/06/05 11:47:43;;;;;;;15.88;11.77;;;;;;;;;;4844697;29;20155;-66
2022/06/05 11:50:14;;;;;;;15.90;10.98;;;;;;;;;;4836002;29;20071;-67
2022/06/05 11:52:48;;;;;;;14.18;10.85;;;;;;;;;;4838996;29;20446;-67
2022/06/05 11:55:13;;;;;;;13.75;11.50;;;;;;;;;;4837471;29;20048;-67
2022/06/05 11:57:46;;;;;;;12.68;10.90;;;;;;;;;;4823413;29;21011;-64
2022/06/05 12:00:12;;;;;;;14.10;11.45;;;;;;;;;;4846179;29;20168;-65
2022/06/05 12:02:40;;;;;;;17.48;11.25;;;;;;;;;;4844221;29;22122;-65
2022/06/05 12:05:18;;;;;;;14.63;11.25;;;;;;;;;;4842763;29;20075;-66
2022/06/05 12:07:44;;;;;;;13.55;10.73;;;;;;;;;;4841682;29;21692;-64
2022/06/05 12:10:30;;;;;;;18.52;11.35;;;;;;;;;;4845854;29;20544;-66
2022/06/05 12:13:00;;;;;;;14.15;10.95;;;;;;;;;;4828077;29;20060;-65
2022/06/05 12:15:37;;;;;;;16.87;11.57;;;;;;;;;;4842954;29;20048;-64
2022/06/05 12:18:11;;;;;;;16.85;11.70;;;;;;;;;;4844022;29;20533;-67
2022/06/05 12:20:39;;;;;;;14.68;12.02;;;;;;;;;;4842815;29;20039;-66
2022/06/05 12:23:18;;;;;;;16.92;12.10;;;;;;;;;;4841993;29;20123;-64
2022/06/05 12:25:50;;;;;;;20.60;12.65;;;;;;;;;;4844049;29;20047;-65
2022/06/05 12:28:26;;;;;;;22.52;13.85;;;;;;;;;;4844207;29;20041;-66
2022/06/05 12:30:57;;;;;;;23.63;12.70;;;;;;;;;;4843495;29;20805;-65
2022/06/05 12:33:26;;;;;;;20.83;12.65;;;;;;;;;;4843760;29;20041;-65
2022/06/05 12:35:53;;;;;;;26.27;13.50;;;;;;;;;;4843347;29;20693;-66
2022/06/05 12:38:19;;;;;;;21.63;14.02;;;;;;;;;;4831038;29;20108;-65
2022/06/05 12:40:51;;;;;;;26.08;14.25;;;;;;;;;;4852438;29;20067;-65
2022/06/05 12:43:25;;;;;;;23.02;14.00;;;;;;;;;;4848141;29;20041;-65
2022/06/05 12:45:55;;;;;;;21.77;14.63;;;;;;;;;;4863696;29;20048;-65
2022/06/05 12:48:21;;;;;;;29.05;14.38;;;;;;;;;;4864711;29;20765;-62
2022/06/05 12:50:52;;;;;;;22.95;14.27;;;;;;;;;;4854835;29;20036;-64
2022/06/05 12:53:27;;;;;;;36.38;14.75;;;;;;;;;;4853048;29;20056;-63
2022/06/05 12:55:56;;;;;;;38.67;16.00;;;;;;;;;;4858559;29;20032;-62
2022/06/05 12:58:30;;;;;;;41.55;16.35;;;;;;;;;;4858231;29;20086;-62
2022/06/05 13:00:58;;;;;;;35.75;16.65;;;;;;;;;;4858411;29;20465;-62
2022/06/05 13:03:23;;;;;;;30.00;16.88;;;;;;;;;;4855871;29;20462;-61
2022/06/05 13:06:02;;;;;;;22.58;16.00;;;;;;;;;;4858718;29;20350;-63
2022/06/05 13:08:42;;;;;;;27.05;17.80;;;;;;;;;;4859439;29;20045;-63
2022/06/05 13:11:17;;;;;;;31.58;18.00;;;;;;;;;;4856183;29;20040;-61
2022/06/05 13:13:42;;;;;;;29.20;18.35;;;;;;;;;;4843415;29;20678;-63
2022/06/05 13:16:15;;;;;;;33.60;19.95;;;;;;;;;;4860609;29;20032;-62
2022/06/05 13:18:47;;;;;;;28.83;19.33;;;;;;;;;;4863762;29;20032;-63
2022/06/05 13:21:33;;;;;;;28.33;18.60;;;;;;;;;;4863197;29;20640;-61
2022/06/05 13:24:13;;;;;;;33.55;19.40;;;;;;;;;;4863405;29;20076;-63
2022/06/05 13:26:58;;;;;;;35.15;20.67;;;;;;;;;;4862632;29;20028;-62
2022/06/05 13:29:39;;;;;;;34.78;19.80;;;;;;;;;;4820646;29;20056;-64
2022/06/05 13:32:11;;;;;;;38.70;19.55;;;;;;;;;;4863466;29;20956;-62
2022/06/05 13:34:40;;;;;;;36.13;19.38;;;;;;;;;;4846876;29;20132;-62
2022/06/05 13:37:15;;;;;;;37.28;19.60;;;;;;;;;;4861998;29;20151;-62
2022/06/05 13:40:04;;;;;;;36.92;20.20;;;;;;;;;;4863367;29;20039;-62
2022/06/05 13:42:34;;;;;;;33.35;20.10;;;;;;;;;;4831690;29;20858;-63
2022/06/05 13:45:03;;;;;;;41.13;20.17;;;;;;;;;;4844871;29;21860;-63
2022/06/05 13:47:50;;;;;;;44.10;20.88;;;;;;;;;;4844003;29;20039;-61
2022/06/05 13:50:19;;;;;;;41.08;21.20;;;;;;;;;;4844985;29;20056;-63
2022/06/05 13:52:49;;;;;;;45.40;21.60;;;;;;;;;;4844539;29;20143;-63
2022/06/05 13:55:17;;;;;;;46.88;21.15;;;;;;;;;;4844707;29;20046;-64
2022/06/05 13:57:53;;;;;;;40.20;21.58;;;;;;;;;;4845178;29;20051;-62
2022/06/05 14:00:21;;;;;;;46.42;22.10;;;;;;;;;;4844497;29;20041;-66
2022/06/05 14:02:57;;;;;;;47.67;21.92;;;;;;;;;;4842879;29;20041;-63
2022/06/05 14:05:30;;;;;;;42.65;20.67;;;;;;;;;;4826255;29;20192;-63
2022/06/05 14:07:58;;;;;;;36.38;21.15;;;;;;;;;;4825868;29;20148;-62
2022/06/05 14:10:26;;;;;;;36.28;21.42;;;;;;;;;;4844252;29;20044;-62
2022/06/05 14:12:59;;;;;;;39.28;20.90;;;;;;;;;;4843930;29;20056;-62
2022/06/05 14:15:27;;;;;;;41.92;21.77;;;;;;;;;;4842476;29;20044;-63
2022/06/05 14:17:56;;;;;;;37.00;22.35;;;;;;;;;;4842501;29;20759;-64
2022/06/05 14:20:27;;;;;;;44.35;24.08;;;;;;;;;;4842271;29;20767;-63
2022/06/05 14:22:54;;;;;;;43.75;23.33;;;;;;;;;;4828734;29;20041;-63
2022/06/05 14:25:20;;;;;;;43.70;24.10;;;;;;;;;;4847403;29;20628;-63
2022/06/05 14:27:51;;;;;;;46.38;23.63;;;;;;;;;;4846171;29;20095;-64
2022/06/05 14:30:28;;;;;;;41.72;22.48;;;;;;;;;;4845938;29;20818;-63
2022/06/05 14:32:55;;;;;;;34.90;21.20;;;;;;;;;;4824564;29;20036;-67
2022/06/05 14:35:20;;;;;;;38.50;22.05;;;;;;;;;;4828746;29;21550;-63
2022/06/05 14:37:54;;;;;;;35.20;21.80;;;;;;;;;;4841928;29;20131;-64
2022/06/05 14:40:20;;;;;;;38.92;21.92;;;;;;;;;;4845312;29;20051;-64
2022/06/05 14:42:55;;;;;;;38.58;22.55;;;;;;;;;;4847015;29;20047;-64
2022/06/05 14:45:41;;;;;;;36.65;21.80;;;;;;;;;;4843673;29;20040;-63
2022/06/05 14:48:22;;;;;;;37.33;23.35;;;;;;;;;;4843727;29;20882;-64
2022/06/05 14:50:57;;;;;;;36.03;22.77;;;;;;;;;;4845558;29;20049;-66
2022/06/05 14:53:31;;;;;;;36.45;23.23;;;;;;;;;;4846488;29;20552;-64
2022/06/05 14:59:03;;;;;;;43.45;22.48;;;;;;;;;;4846715;29;20785;-65
2022/06/05 15:01:49;;;;;;;51.58;22.02;;;;;;;;;;4845742;29;20043;-64
2022/06/05 15:04:17;;;;;;;40.78;21.73;;;;;;;;;;4843665;29;20453;-64
2022/06/05 15:07:01;;;;;;;43.70;21.95;;;;;;;;;;4845423;29;20839;-64